Time;durP1;ratioP1;P1;durP2;ratioP2;P2;SDS_P1;SDS_P2;PMS_P1;PMS_P2;Temp;Humidity;BMP_temperature;BMP_pressure;BME280_temperature;BME280_humidity;BME280_pressure;Samples;Min_cycle;Max_cycle;Signal;HPM_P1;HPM_P2
2023/06/13 00:01:04;;;;;;;1.98;1.00;;;22.10;39.50;;;;;;4912474;29;20084;-80
2023/06/13 00:03:33;;;;;;;1.98;1.20;;;22.10;39.60;;;;;;4922555;29;20059;-80
2023/06/13 00:06:01;;;;;;;1.60;0.90;;;22.00;39.70;;;;;;4897489;29;20055;-80
2023/06/13 00:08:31;;;;;;;1.90;1.05;;;22.00;39.80;;;;;;4915379;29;20044;-80
2023/06/13 00:10:59;;;;;;;2.42;0.60;;;21.90;39.90;;;;;;4898952;29;20048;-80
2023/06/13 00:13:26;;;;;;;2.58;0.98;;;21.90;39.90;;;;;;4895348;29;20413;-81
2023/06/13 00:15:56;;;;;;;1.60;0.70;;;21.90;40.00;;;;;;4909855;29;20040;-81
2023/06/13 00:18:24;;;;;;;2.20;0.90;;;21.80;40.00;;;;;;4912196;29;20398;-81
2023/06/13 00:20:55;;;;;;;2.30;1.20;;;21.80;40.10;;;;;;4903489;29;20044;-81
2023/06/13 00:23:22;;;;;;;1.90;0.80;;;21.80;40.20;;;;;;4903117;29;20048;-81
2023/06/13 00:25:50;;;;;;;1.38;0.75;;;21.80;40.20;;;;;;4894909;29;20574;-81
2023/06/13 00:28:17;;;;;;;2.30;0.85;;;21.70;40.20;;;;;;4889595;29;20142;-81
2023/06/13 00:30:45;;;;;;;2.05;0.88;;;21.70;40.30;;;;;;4905087;29;20051;-88
2023/06/13 00:33:16;;;;;;;2.45;0.90;;;21.70;40.40;;;;;;4915761;29;20493;-88
2023/06/13 00:35:45;;;;;;;1.77;0.80;;;21.70;41.10;;;;;;4925414;29;20039;-81
2023/06/13 00:38:12;;;;;;;1.73;1.00;;;21.60;41.10;;;;;;4901793;29;20048;-81
2023/06/13 00:40:40;;;;;;;2.22;0.93;;;21.60;40.60;;;;;;4901593;29;20048;-81
2023/06/13 00:43:07;;;;;;;2.10;1.02;;;21.50;40.70;;;;;;4921002;29;20488;-81
2023/06/13 00:45:34;;;;;;;3.42;1.38;;;21.50;40.80;;;;;;4886735;29;20052;-81
2023/06/13 00:48:06;;;;;;;2.20;1.00;;;21.50;40.80;;;;;;4917904;29;20048;-81
2023/06/13 00:50:44;;;;;;;1.95;0.82;;;21.50;40.90;;;;;;4888149;29;20556;-80
2023/06/13 00:53:17;;;;;;;1.90;0.80;;;21.40;40.90;;;;;;4908042;29;20069;-81
2023/06/13 00:55:46;;;;;;;1.77;0.82;;;21.40;41.00;;;;;;4904494;29;20058;-81
2023/06/13 00:58:15;;;;;;;2.30;0.93;;;21.40;41.10;;;;;;4902025;29;20472;-81
2023/06/13 01:00:45;;;;;;;2.65;1.08;;;21.30;41.10;;;;;;4907876;29;20051;-81
2023/06/13 01:03:15;;;;;;;1.80;0.80;;;21.30;41.20;;;;;;4923790;29;20048;-81
2023/06/13 01:05:44;;;;;;;2.47;1.02;;;21.20;41.20;;;;;;4937668;29;20081;-81
2023/06/13 01:08:30;;;;;;;2.55;1.00;;;21.20;41.30;;;;;;4921723;29;20051;-80
2023/06/13 01:11:22;;;;;;;2.10;1.00;;;21.20;42.00;;;;;;4910370;29;20496;-80
2023/06/13 01:13:54;;;;;;;;;;;21.10;41.50;;;;;;4935684;29;20051;-81
2023/06/13 01:16:35;;;;;;;1.90;1.02;;;21.00;41.60;;;;;;4929567;29;20008;-81
2023/06/13 01:19:13;;;;;;;1.98;0.70;;;21.00;41.70;;;;;;4943556;29;20129;-80
2023/06/13 01:21:41;;;;;;;2.20;1.00;;;20.90;41.70;;;;;;4945369;29;20039;-80
2023/06/13 01:24:21;;;;;;;1.60;0.80;;;20.90;41.80;;;;;;4951609;29;20044;-80
2023/06/13 01:26:56;;;;;;;2.38;0.82;;;20.90;41.90;;;;;;4941578;29;20062;-80
2023/06/13 01:29:24;;;;;;;2.20;0.95;;;20.90;42.00;;;;;;4950208;29;20059;-81
2023/06/13 01:31:55;;;;;;;3.42;1.27;;;20.80;42.00;;;;;;4927000;29;20054;-88
2023/06/13 01:34:24;;;;;;;1.80;0.80;;;20.80;42.10;;;;;;4931763;29;20065;-88
2023/06/13 01:36:51;;;;;;;2.42;1.10;;;20.80;42.20;;;;;;4930986;29;20069;-87
2023/06/13 01:39:18;;;;;;;2.00;0.95;;;20.70;42.20;;;;;;4927884;29;20055;-88
2023/06/13 01:41:45;;;;;;;2.10;0.90;;;20.70;42.30;;;;;;4943328;29;20051;-87
2023/06/13 01:44:19;;;;;;;1.50;0.82;;;20.70;42.40;;;;;;4914779;28;20043;-87
2023/06/13 01:47:14;;;;;;;2.05;1.02;;;20.70;42.50;;;;;;4940570;29;20536;-88
2023/06/13 01:50:04;;;;;;;2.40;1.20;;;20.60;42.50;;;;;;4935077;29;20051;-88
2023/06/13 01:52:54;;;;;;;2.63;0.93;;;20.60;42.60;;;;;;4941799;29;20050;-87
2023/06/13 01:55:32;;;;;;;2.15;1.05;;;20.60;42.80;;;;;;4946622;29;20047;-88
2023/06/13 01:58:07;;;;;;;2.42;1.17;;;20.40;42.80;;;;;;4952760;28;20051;-88
2023/06/13 02:00:36;;;;;;;2.50;1.15;;;20.50;43.00;;;;;;4953737;29;20130;-88
2023/06/13 02:03:03;;;;;;;2.53;1.17;;;20.40;43.10;;;;;;4927408;29;20054;-88
2023/06/13 02:05:31;;;;;;;2.92;1.20;;;20.40;43.10;;;;;;4927486;29;20050;-88
2023/06/13 02:07:58;;;;;;;1.83;0.90;;;20.30;43.20;;;;;;4921951;29;20083;-88
2023/06/13 02:10:25;;;;;;;3.72;1.00;;;20.30;43.20;;;;;;4935266;29;20146;-88
2023/06/13 02:12:52;;;;;;;2.40;1.17;;;20.30;43.20;;;;;;4910673;29;20422;-89
2023/06/13 02:15:20;;;;;;;2.38;1.20;;;20.30;43.30;;;;;;4904992;29;20492;-88
2023/06/13 02:17:48;;;;;;;2.05;1.10;;;20.30;43.40;;;;;;4926820;29;20054;-88
2023/06/13 02:20:16;;;;;;;2.63;1.27;;;20.20;43.40;;;;;;4924982;29;20052;-88
2023/06/13 02:22:43;;;;;;;2.42;1.30;;;20.20;43.40;;;;;;4924585;29;20039;-88
2023/06/13 02:25:11;;;;;;;2.28;1.17;;;20.20;43.50;;;;;;4924527;29;20085;-88
2023/06/13 02:27:39;;;;;;;2.75;1.35;;;20.10;43.60;;;;;;4919181;29;20048;-88
2023/06/13 02:30:08;;;;;;;2.58;1.38;;;20.10;43.60;;;;;;4907681;29;20040;-88
2023/06/13 02:32:39;;;;;;;2.03;0.90;;;20.10;43.80;;;;;;4926901;29;20062;-88
2023/06/13 02:35:08;;;;;;;1.95;1.00;;;20.00;43.80;;;;;;4943512;29;20134;-88
2023/06/13 02:37:35;;;;;;;2.22;1.10;;;20.00;43.90;;;;;;4907481;29;20404;-88
2023/06/13 02:40:05;;;;;;;3.42;1.10;;;20.00;44.00;;;;;;4921858;29;20075;-88
2023/06/13 02:42:32;;;;;;;2.45;1.65;;;19.90;44.00;;;;;;4928191;29;20071;-88
2023/06/13 02:44:59;;;;;;;2.33;1.20;;;19.90;44.10;;;;;;4941206;29;20039;-88
2023/06/13 02:47:26;;;;;;;2.47;1.30;;;19.90;44.20;;;;;;4939000;29;20050;-88
2023/06/13 02:49:54;;;;;;;3.40;1.85;;;19.90;44.20;;;;;;4925677;29;20058;-88
2023/06/13 02:52:23;;;;;;;3.00;1.60;;;19.80;44.20;;;;;;4925461;29;20427;-88
2023/06/13 02:54:50;;;;;;;3.60;1.30;;;19.80;44.30;;;;;;4906087;29;20047;-88
2023/06/13 02:57:17;;;;;;;4.13;1.60;;;19.80;44.40;;;;;;4927000;29;20051;-88
2023/06/13 02:59:47;;;;;;;2.72;1.42;;;19.70;44.40;;;;;;4925111;29;20043;-88
2023/06/13 03:02:16;;;;;;;2.92;1.65;;;19.70;44.50;;;;;;4911138;29;20054;-88
2023/06/13 03:04:44;;;;;;;2.40;1.23;;;19.60;44.50;;;;;;4908403;29;20082;-88
2023/06/13 03:07:16;;;;;;;4.07;1.70;;;19.60;44.60;;;;;;4920558;29;20054;-88
2023/06/13 03:09:44;;;;;;;4.38;1.55;;;19.60;44.70;;;;;;4939146;29;20049;-90
2023/06/13 03:12:11;;;;;;;3.33;1.40;;;19.50;44.60;;;;;;4934515;29;20051;-88
2023/06/13 03:14:45;;;;;;;;;;;19.50;44.70;;;;;;4926221;29;20503;-89
2023/06/13 03:17:12;;;;;;;3.00;1.33;;;19.50;44.80;;;;;;4917033;29;20017;-88
2023/06/13 03:19:39;;;;;;;3.25;1.75;;;19.40;44.90;;;;;;4920863;29;20106;-89
2023/06/13 03:22:06;;;;;;;3.40;1.77;;;19.40;44.90;;;;;;4923408;29;20043;-88
2023/06/13 03:24:35;;;;;;;2.60;1.33;;;19.40;45.00;;;;;;4921513;29;20051;-88
2023/06/13 03:27:03;;;;;;;2.67;1.25;;;19.40;45.10;;;;;;4919362;29;20139;-87
2023/06/13 03:29:30;;;;;;;2.67;1.08;;;19.40;45.10;;;;;;4918779;29;20134;-87
2023/06/13 03:31:58;;;;;;;2.22;1.40;;;19.30;45.10;;;;;;4934274;29;20118;-88
2023/06/13 03:34:26;;;;;;;2.47;1.30;;;19.30;45.10;;;;;;4913077;29;20532;-89
2023/06/13 03:36:53;;;;;;;1.92;1.10;;;19.30;45.20;;;;;;4919695;29;20051;-88
2023/06/13 03:39:22;;;;;;;3.45;1.60;;;19.30;45.20;;;;;;4942457;29;20043;-88
2023/06/13 03:41:49;;;;;;;3.15;1.70;;;19.30;45.40;;;;;;4919301;29;20051;-87
2023/06/13 03:44:17;;;;;;;2.60;1.10;;;19.20;45.40;;;;;;4918876;29;20043;-87
2023/06/13 03:46:45;;;;;;;2.80;1.40;;;19.20;45.50;;;;;;4915004;29;20085;-88
2023/06/13 03:49:14;;;;;;;2.83;1.40;;;19.20;45.60;;;;;;4921177;29;20043;-81
2023/06/13 03:51:42;;;;;;;2.20;1.25;;;19.20;45.60;;;;;;4920168;29;20069;-81
2023/06/13 03:54:09;;;;;;;2.50;1.42;;;19.10;45.60;;;;;;4921998;29;20058;-81
2023/06/13 03:56:36;;;;;;;2.03;1.17;;;19.10;45.60;;;;;;4897480;29;20047;-81
2023/06/13 03:59:04;;;;;;;3.67;1.00;;;19.10;45.70;;;;;;4918109;29;20400;-81
2023/06/13 04:01:31;;;;;;;2.20;1.10;;;19.10;45.70;;;;;;4921607;29;20471;-81
2023/06/13 04:03:59;;;;;;;2.33;1.20;;;19.10;45.70;;;;;;4908510;29;20146;-81
2023/06/13 04:06:28;;;;;;;2.15;1.25;;;19.10;45.70;;;;;;4921669;29;20048;-81
2023/06/13 04:08:57;;;;;;;3.10;1.55;;;19.10;45.70;;;;;;4906054;29;20506;-81
2023/06/13 04:11:24;;;;;;;2.78;1.80;;;19.20;45.80;;;;;;4918755;29;20048;-81
2023/06/13 04:13:52;;;;;;;3.80;1.50;;;19.10;45.80;;;;;;4921153;29;20051;-81
2023/06/13 04:16:19;;;;;;;2.17;1.10;;;19.10;45.80;;;;;;4908236;29;20496;-81
2023/06/13 04:18:48;;;;;;;2.67;1.38;;;19.10;45.80;;;;;;4906388;29;20533;-81
2023/06/13 04:21:15;;;;;;;2.60;1.33;;;19.20;45.90;;;;;;4937200;29;20138;-81
2023/06/13 04:23:42;;;;;;;2.13;1.38;;;19.10;45.80;;;;;;4921639;29;20044;-82
2023/06/13 04:26:12;;;;;;;3.25;1.52;;;19.20;45.80;;;;;;4937331;29;20044;-81
2023/06/13 04:28:41;;;;;;;2.63;1.40;;;19.20;45.80;;;;;;4921605;29;20518;-81
2023/06/13 04:31:10;;;;;;;3.22;1.38;;;19.20;45.80;;;;;;4906028;29;20499;-88
2023/06/13 04:33:39;;;;;;;2.00;1.23;;;19.40;45.70;;;;;;4906671;29;20122;-87
2023/06/13 04:36:08;;;;;;;1.95;1.10;;;19.50;45.50;;;;;;4921866;28;20046;-87
2023/06/13 04:38:39;;;;;;;3.92;1.70;;;19.50;45.40;;;;;;4908298;29;20134;-88
2023/06/13 04:41:10;;;;;;;3.95;1.25;;;19.50;45.50;;;;;;4954920;29;20053;-87
2023/06/13 04:43:38;;;;;;;2.38;1.35;;;19.50;45.50;;;;;;4921509;29;20135;-87
2023/06/13 04:46:06;;;;;;;2.80;1.02;;;19.60;45.50;;;;;;4905600;29;20168;-87
2023/06/13 04:48:37;;;;;;;2.70;1.58;;;19.60;45.50;;;;;;4912917;29;20146;-87
2023/06/13 04:51:08;;;;;;;3.15;1.23;;;19.60;45.40;;;;;;4921646;29;20102;-81
2023/06/13 04:53:43;;;;;;;2.13;0.90;;;19.70;45.40;;;;;;4952747;29;20051;-81
2023/06/13 04:56:10;;;;;;;1.60;0.85;;;19.70;45.30;;;;;;4936987;29;20073;-81
2023/06/13 04:58:37;;;;;;;3.47;1.52;;;19.80;45.30;;;;;;4936947;29;20051;-81
2023/06/13 05:01:04;;;;;;;3.08;1.27;;;19.90;45.30;;;;;;4905418;29;20075;-87
2023/06/13 05:03:31;;;;;;;4.15;1.80;;;19.90;45.20;;;;;;4887443;29;20048;-87
2023/06/13 05:05:59;;;;;;;3.00;1.40;;;20.00;45.20;;;;;;4906201;29;20465;-88
2023/06/13 05:08:26;;;;;;;2.95;1.67;;;20.00;45.20;;;;;;4896020;29;20047;-88
2023/06/13 05:10:53;;;;;;;2.60;1.38;;;20.10;45.20;;;;;;4897861;29;20056;-86
2023/06/13 05:13:20;;;;;;;3.20;1.52;;;20.10;45.10;;;;;;4941214;29;20085;-87
2023/06/13 05:15:47;;;;;;;2.75;1.40;;;20.20;45.20;;;;;;4898911;29;20039;-87
2023/06/13 05:18:14;;;;;;;2.60;1.30;;;20.20;45.10;;;;;;4922955;29;20036;-87
2023/06/13 05:20:43;;;;;;;2.90;1.40;;;20.20;45.10;;;;;;4903114;29;20409;-87
2023/06/13 05:23:13;;;;;;;3.13;1.30;;;20.30;45.10;;;;;;4926012;29;20054;-88
2023/06/13 05:25:40;;;;;;;2.00;1.10;;;20.30;45.10;;;;;;4901217;29;20042;-87
2023/06/13 05:28:08;;;;;;;3.00;1.20;;;20.40;45.00;;;;;;4929638;29;20047;-87
2023/06/13 05:30:36;;;;;;;3.83;1.75;;;20.50;45.00;;;;;;4893028;29;20098;-87
2023/06/13 05:33:03;;;;;;;1.92;0.90;;;20.60;45.00;;;;;;4919435;29;20036;-87
2023/06/13 05:35:30;;;;;;;2.40;1.33;;;20.60;44.90;;;;;;4931052;29;20056;-87
2023/06/13 05:38:13;;;;;;;3.25;1.10;;;20.80;44.90;;;;;;4926654;29;20059;-88
2023/06/13 05:40:40;;;;;;;3.13;1.30;;;20.80;44.80;;;;;;4929984;29;20063;-88
2023/06/13 05:43:08;;;;;;;1.70;0.90;;;20.90;44.70;;;;;;4908441;29;20099;-88
2023/06/13 05:45:35;;;;;;;2.88;1.33;;;21.00;44.70;;;;;;4915258;29;20068;-87
2023/06/13 05:48:02;;;;;;;3.80;1.70;;;21.00;44.60;;;;;;4909833;29;20134;-87
2023/06/13 05:50:29;;;;;;;2.05;0.90;;;21.10;44.60;;;;;;4915399;29;20051;-87
2023/06/13 05:52:56;;;;;;;1.95;0.85;;;21.20;44.50;;;;;;4890685;29;20054;-87
2023/06/13 05:55:23;;;;;;;3.53;1.35;;;21.30;45.10;;;;;;4937805;29;20496;-88
2023/06/13 05:57:51;;;;;;;2.30;1.13;;;21.40;44.50;;;;;;4906003;29;20061;-87
2023/06/13 06:00:18;;;;;;;2.88;1.20;;;21.50;44.50;;;;;;4884155;29;20048;-87
2023/06/13 06:02:47;;;;;;;2.40;1.23;;;21.50;44.40;;;;;;4919283;29;20059;-88
2023/06/13 06:05:15;;;;;;;3.08;1.40;;;21.60;44.40;;;;;;4921648;29;20048;-87
2023/06/13 06:07:43;;;;;;;2.58;1.83;;;21.70;44.40;;;;;;4934523;29;20056;-88
2023/06/13 06:10:12;;;;;;;2.40;1.30;;;21.70;44.30;;;;;;4919931;29;20064;-88
2023/06/13 06:12:40;;;;;;;2.65;1.40;;;21.80;44.20;;;;;;4921562;29;20583;-88
2023/06/13 06:15:08;;;;;;;4.15;1.33;;;21.90;44.20;;;;;;4921085;29;20480;-81
2023/06/13 06:17:35;;;;;;;2.75;1.27;;;22.00;44.20;;;;;;4919833;29;20036;-80
2023/06/13 06:20:05;;;;;;;3.05;1.45;;;22.00;44.20;;;;;;4914502;29;20048;-81
2023/06/13 06:22:34;;;;;;;3.35;1.55;;;22.10;44.20;;;;;;4914768;29;20128;-88
2023/06/13 06:25:01;;;;;;;3.10;1.25;;;22.10;44.20;;;;;;4912336;29;20039;-88
2023/06/13 06:27:28;;;;;;;3.03;1.55;;;22.20;44.10;;;;;;4901855;29;20050;-87
2023/06/13 06:29:55;;;;;;;2.33;1.23;;;22.30;44.10;;;;;;4910653;29;20412;-81
2023/06/13 06:32:22;;;;;;;4.25;1.67;;;22.40;44.00;;;;;;4911041;29;20052;-81
2023/06/13 06:34:49;;;;;;;2.33;1.40;;;22.50;43.90;;;;;;4916683;29;20055;-82
2023/06/13 06:37:16;;;;;;;3.00;1.25;;;22.50;43.90;;;;;;4913925;29;20062;-81
2023/06/13 06:39:43;;;;;;;2.45;1.30;;;22.60;43.80;;;;;;4927672;29;20044;-82
2023/06/13 06:42:11;;;;;;;3.45;1.33;;;22.70;43.80;;;;;;4928913;29;20151;-82
2023/06/13 06:44:45;;;;;;;2.80;1.50;;;22.80;43.80;;;;;;4916937;29;20525;-82
2023/06/13 06:47:12;;;;;;;3.50;1.77;;;22.80;43.80;;;;;;4909565;29;20044;-82
2023/06/13 06:49:40;;;;;;;2.60;1.50;;;22.90;43.90;;;;;;4918103;29;20118;-81
2023/06/13 06:52:07;;;;;;;3.78;1.30;;;22.90;43.90;;;;;;4906885;29;20048;-82
2023/06/13 06:54:35;;;;;;;2.67;1.33;;;23.00;43.80;;;;;;4907498;29;20464;-82
2023/06/13 06:57:03;;;;;;;2.92;1.50;;;23.10;43.70;;;;;;4919970;29;20047;-80
2023/06/13 06:59:30;;;;;;;3.42;1.20;;;23.20;43.70;;;;;;4913991;29;20044;-78
2023/06/13 07:01:57;;;;;;;2.83;1.27;;;23.30;43.70;;;;;;4918169;29;20051;-78
2023/06/13 07:04:25;;;;;;;2.90;1.58;;;23.40;43.70;;;;;;4915077;29;20051;-82
2023/06/13 07:06:52;;;;;;;2.65;1.40;;;23.40;43.70;;;;;;4919144;29;20147;-79
2023/06/13 07:09:20;;;;;;;3.03;1.38;;;23.50;43.80;;;;;;4891497;29;20051;-79
2023/06/13 07:11:47;;;;;;;2.90;1.50;;;23.50;43.70;;;;;;4895573;29;20052;-83
2023/06/13 07:14:19;;;;;;;2.88;1.45;;;23.60;43.60;;;;;;4902132;29;20079;-85
2023/06/13 07:16:47;;;;;;;2.53;1.20;;;23.70;43.50;;;;;;4888023;29;20044;-85
2023/06/13 07:19:14;;;;;;;2.13;1.05;;;23.80;43.50;;;;;;4900528;29;20151;-84
2023/06/13 07:21:41;;;;;;;2.63;1.40;;;23.90;43.50;;;;;;4883070;29;20043;-84
2023/06/13 07:24:08;;;;;;;2.63;1.30;;;24.00;43.50;;;;;;4914611;29;20064;-84
2023/06/13 07:26:35;;;;;;;2.88;1.77;;;24.10;43.30;;;;;;4914220;29;20496;-77
2023/06/13 07:29:02;;;;;;;2.90;1.35;;;24.20;43.30;;;;;;4891319;29;20052;-77
2023/06/13 07:31:30;;;;;;;2.42;1.30;;;24.30;43.20;;;;;;4899979;29;20055;-77
2023/06/13 07:33:57;;;;;;;2.60;1.20;;;24.40;43.10;;;;;;4902534;29;20059;-78
2023/06/13 07:36:24;;;;;;;4.13;1.67;;;24.50;43.10;;;;;;4905993;29;20040;-78
2023/06/13 07:38:51;;;;;;;2.50;1.38;;;24.50;43.00;;;;;;4903477;29;20066;-79
2023/06/13 07:41:18;;;;;;;2.40;1.33;;;24.60;42.90;;;;;;4890726;29;20055;-82
2023/06/13 07:43:45;;;;;;;2.40;1.38;;;24.70;42.80;;;;;;4897423;29;20068;-80
2023/06/13 07:46:12;;;;;;;2.88;1.23;;;24.80;42.70;;;;;;4896226;29;20511;-81
2023/06/13 07:48:40;;;;;;;2.58;1.55;;;24.80;42.70;;;;;;4913670;29;20040;-81
2023/06/13 07:51:06;;;;;;;2.80;1.70;;;24.90;42.70;;;;;;4908753;29;20059;-82
2023/06/13 07:53:34;;;;;;;2.60;1.23;;;24.90;42.50;;;;;;4893336;29;20052;-81
2023/06/13 07:56:04;;;;;;;2.67;1.58;;;24.90;42.50;;;;;;4917993;29;20119;-81
2023/06/13 07:58:31;;;;;;;2.17;1.17;;;25.00;42.30;;;;;;4903069;29;20405;-81
2023/06/13 08:01:03;;;;;;;1.90;1.20;;;25.10;42.30;;;;;;4904311;29;20043;-77
2023/06/13 08:03:30;;;;;;;2.78;1.30;;;25.20;42.20;;;;;;4918731;29;20047;-81
2023/06/13 08:05:57;;;;;;;2.10;1.08;;;25.30;42.10;;;;;;4916893;29;20424;-78
2023/06/13 08:08:24;;;;;;;2.28;1.25;;;25.40;42.10;;;;;;4925089;29;20419;-77
2023/06/13 08:10:52;;;;;;;4.28;1.30;;;25.50;42.00;;;;;;4903162;29;20404;-77
2023/06/13 08:13:19;;;;;;;2.70;1.48;;;25.50;41.80;;;;;;4925372;29;20441;-81
2023/06/13 08:15:48;;;;;;;1.92;1.25;;;25.60;41.70;;;;;;4931717;29;20126;-81
2023/06/13 08:18:15;;;;;;;3.17;1.50;;;25.60;41.60;;;;;;4916086;29;20079;-80
2023/06/13 08:20:45;;;;;;;2.42;1.30;;;25.70;41.40;;;;;;4915308;29;20103;-81
2023/06/13 08:23:12;;;;;;;2.90;1.60;;;25.80;41.40;;;;;;4908398;29;20044;-77
2023/06/13 08:25:40;;;;;;;3.05;1.48;;;25.80;41.90;;;;;;4915056;29;20050;-77
2023/06/13 08:28:08;;;;;;;2.55;1.25;;;26.00;41.20;;;;;;4916617;29;20102;-77
2023/06/13 08:30:35;;;;;;;3.42;1.50;;;26.00;41.00;;;;;;4928457;29;20150;-81
2023/06/13 08:33:02;;;;;;;1.90;1.20;;;26.10;40.90;;;;;;4912186;29;20043;-81
2023/06/13 08:35:31;;;;;;;2.30;1.30;;;26.20;40.80;;;;;;4914237;29;20464;-78
2023/06/13 08:37:58;;;;;;;2.75;1.50;;;26.20;40.80;;;;;;4908314;29;20039;-77
2023/06/13 08:40:25;;;;;;;2.28;1.45;;;26.30;40.60;;;;;;4937153;29;20070;-78
2023/06/13 08:42:53;;;;;;;1.77;1.02;;;26.40;40.60;;;;;;4902976;29;20040;-87
2023/06/13 08:45:21;;;;;;;3.00;1.25;;;26.40;40.40;;;;;;4914101;29;20067;-81
2023/06/13 08:47:48;;;;;;;2.22;1.20;;;26.50;40.30;;;;;;4947532;29;20051;-81
2023/06/13 08:50:23;;;;;;;3.28;1.80;;;26.70;40.20;;;;;;4918268;29;20118;-81
2023/06/13 08:52:52;;;;;;;3.13;1.80;;;26.70;39.70;;;;;;4936780;29;20087;-77
2023/06/13 08:55:23;;;;;;;2.72;1.30;;;26.80;39.60;;;;;;4924593;29;20059;-78
2023/06/13 08:58:11;;;;;;;2.30;1.37;;;26.80;39.40;;;;;;4930878;29;20071;-78
2023/06/13 09:00:40;;;;;;;2.70;1.17;;;26.90;39.40;;;;;;4931088;29;20136;-81
2023/06/13 09:03:12;;;;;;;2.30;1.42;;;27.00;39.30;;;;;;4915459;29;20586;-81
2023/06/13 09:05:40;;;;;;;2.92;1.13;;;27.10;39.20;;;;;;4942399;29;20051;-77
2023/06/13 09:08:09;;;;;;;1.92;1.10;;;27.20;38.90;;;;;;4942835;29;20051;-77
2023/06/13 09:10:56;;;;;;;2.78;1.33;;;27.30;38.70;;;;;;4922314;29;20047;-81
2023/06/13 09:13:25;;;;;;;2.50;1.30;;;27.40;38.50;;;;;;4906280;29;20134;-77
2023/06/13 09:15:52;;;;;;;2.00;1.00;;;27.50;38.50;;;;;;4937508;29;20047;-78
2023/06/13 09:18:20;;;;;;;2.28;1.13;;;27.60;38.30;;;;;;4935882;29;20035;-78
2023/06/13 09:20:47;;;;;;;2.35;1.00;;;27.60;38.10;;;;;;4929936;29;20448;-79
2023/06/13 09:23:25;;;;;;;1.83;1.10;;;27.70;37.90;;;;;;4932595;29;20111;-79
2023/06/13 09:25:55;;;;;;;3.17;1.20;;;27.80;37.80;;;;;;4938351;29;20067;-79
2023/06/13 09:28:40;;;;;;;2.17;1.35;;;27.80;37.40;;;;;;4935103;29;20048;-79
2023/06/13 09:31:08;;;;;;;2.33;1.00;;;27.80;37.30;;;;;;4950501;29;20070;-79
2023/06/13 09:33:36;;;;;;;2.53;0.90;;;27.80;37.20;;;;;;4934689;29;20090;-79
2023/06/13 09:36:07;;;;;;;1.80;0.80;;;27.90;37.10;;;;;;4917597;29;20055;-79
2023/06/13 09:38:36;;;;;;;2.17;1.20;;;28.00;36.90;;;;;;4929785;29;20035;-79
2023/06/13 09:41:04;;;;;;;3.55;1.50;;;28.10;36.90;;;;;;4935149;29;20556;-78
2023/06/13 09:43:32;;;;;;;1.92;1.15;;;28.20;36.70;;;;;;4924757;29;20500;-82
2023/06/13 09:46:00;;;;;;;1.88;0.90;;;28.20;36.60;;;;;;4937505;29;20495;-81
2023/06/13 09:48:28;;;;;;;1.40;1.00;;;28.30;36.50;;;;;;4940194;29;20051;-81
2023/06/13 09:50:55;;;;;;;2.53;1.20;;;28.40;36.30;;;;;;4918694;29;20055;-81
2023/06/13 09:53:22;;;;;;;3.65;1.40;;;28.40;36.10;;;;;;4940355;29;20384;-80
2023/06/13 09:55:49;;;;;;;2.53;1.00;;;28.50;36.00;;;;;;4924742;29;20043;-85
2023/06/13 09:58:17;;;;;;;2.17;1.10;;;28.50;35.90;;;;;;4934807;29;20043;-86
2023/06/13 10:01:03;;;;;;;2.30;1.20;;;28.60;35.90;;;;;;4912126;29;20039;-82
2023/06/13 10:03:33;;;;;;;1.73;1.40;;;28.70;35.60;;;;;;4931455;29;20040;-83
2023/06/13 10:06:00;;;;;;;1.85;0.90;;;28.60;35.50;;;;;;4921475;29;20044;-79
2023/06/13 10:08:28;;;;;;;2.65;1.50;;;28.70;35.50;;;;;;4929346;29;20069;-79
2023/06/13 10:10:57;;;;;;;4.03;1.52;;;28.70;35.30;;;;;;4953968;29;20047;-84
2023/06/13 10:13:32;;;;;;;1.85;1.15;;;28.80;35.20;;;;;;4937658;29;20048;-83
2023/06/13 10:16:03;;;;;;;2.33;1.00;;;28.90;35.10;;;;;;4934857;29;20134;-80
2023/06/13 10:18:37;;;;;;;2.10;1.20;;;29.00;35.10;;;;;;4920648;29;20047;-80
2023/06/13 10:21:06;;;;;;;2.03;1.00;;;29.10;34.90;;;;;;4934783;29;20050;-80
2023/06/13 10:23:40;;;;;;;2.15;1.15;;;29.10;34.70;;;;;;4920881;29;20070;-79
2023/06/13 10:26:09;;;;;;;3.10;1.10;;;29.20;34.80;;;;;;4931559;29;20039;-80
2023/06/13 10:28:50;;;;;;;1.92;1.20;;;29.30;34.70;;;;;;4936240;29;20076;-80
2023/06/13 10:31:53;;;;;;;2.38;1.35;;;29.30;34.40;;;;;;4938799;29;20052;-80
2023/06/13 10:35:08;;;;;;;2.42;1.33;;;29.20;34.30;;;;;;4927106;29;20047;-80
2023/06/13 10:38:14;;;;;;;3.05;1.58;;;29.10;34.20;;;;;;4927668;29;20126;-80
2023/06/13 10:40:53;;;;;;;2.22;1.27;;;29.00;34.20;;;;;;4949478;29;20098;-80
2023/06/13 10:43:25;;;;;;;2.10;1.60;;;29.00;34.40;;;;;;4947706;29;20066;-80
2023/06/13 10:45:56;;;;;;;2.13;1.40;;;29.10;34.30;;;;;;4941792;29;20175;-80
2023/06/13 10:48:46;;;;;;;2.40;1.60;;;29.10;34.10;;;;;;4935186;29;20048;-84
2023/06/13 10:51:18;;;;;;;2.33;1.40;;;29.20;34.00;;;;;;4934739;29;20055;-79
2023/06/13 10:53:48;;;;;;;2.40;1.48;;;29.30;33.80;;;;;;4920583;29;20059;-79
2023/06/13 10:56:16;;;;;;;2.72;1.25;;;29.40;33.80;;;;;;4923163;29;20107;-80
2023/06/13 10:58:45;;;;;;;3.25;1.80;;;29.30;33.60;;;;;;4938802;29;20051;-82
2023/06/13 11:01:24;;;;;;;2.97;1.58;;;29.30;33.60;;;;;;4919735;29;20051;-81
2023/06/13 11:04:19;;;;;;;2.28;1.58;;;29.40;33.60;;;;;;4935995;29;20051;-83
2023/06/13 11:06:51;;;;;;;4.00;1.80;;;29.40;33.40;;;;;;4922321;29;20507;-84
2023/06/13 11:09:26;;;;;;;2.88;1.77;;;29.40;33.30;;;;;;4937663;29;20528;-85
2023/06/13 11:11:55;;;;;;;3.00;1.58;;;29.40;33.30;;;;;;4928604;29;20047;-84
2023/06/13 11:14:32;;;;;;;1.85;1.23;;;29.50;33.20;;;;;;4923372;29;20118;-83
2023/06/13 11:17:02;;;;;;;2.78;2.03;;;29.40;33.10;;;;;;4945882;29;20054;-83
2023/06/13 11:19:35;;;;;;;2.70;1.40;;;29.40;33.00;;;;;;4943206;29;20123;-83
2023/06/13 11:22:02;;;;;;;3.45;1.75;;;29.30;33.10;;;;;;4921232;29;20047;-85
2023/06/13 11:24:35;;;;;;;2.95;2.33;;;29.20;33.00;;;;;;4925214;29;20126;-85
2023/06/13 11:27:04;;;;;;;3.08;1.55;;;29.20;33.00;;;;;;4938915;29;20077;-86
2023/06/13 11:29:34;;;;;;;3.72;1.63;;;29.30;33.00;;;;;;4954392;29;20047;-84
2023/06/13 11:32:04;;;;;;;2.75;1.75;;;29.40;32.90;;;;;;4927946;29;20051;-85
2023/06/13 11:34:33;;;;;;;2.08;1.40;;;29.50;32.90;;;;;;4914897;29;20054;-86
2023/06/13 11:37:08;;;;;;;2.55;1.60;;;29.60;32.70;;;;;;4906489;29;20170;-89
2023/06/13 11:39:40;;;;;;;2.17;1.20;;;29.80;32.70;;;;;;4921240;29;20058;-90
2023/06/13 11:42:10;;;;;;;2.25;1.40;;;29.90;32.70;;;;;;4933912;29;20043;-87
2023/06/13 11:44:38;;;;;;;3.13;1.42;;;30.00;32.50;;;;;;4906639;29;20044;-86
2023/06/13 11:47:10;;;;;;;2.90;1.95;;;30.10;32.40;;;;;;4916664;29;20047;-87
2023/06/13 11:49:37;;;;;;;6.13;1.88;;;30.20;32.20;;;;;;4927228;29;20074;-86
2023/06/13 11:52:15;;;;;;;2.47;1.65;;;30.20;32.20;;;;;;4932481;28;20056;-87
2023/06/13 11:54:47;;;;;;;2.13;1.42;;;30.40;32.20;;;;;;4922232;29;20098;-80
2023/06/13 11:57:15;;;;;;;2.60;1.50;;;30.50;32.10;;;;;;4920176;29;20043;-81
2023/06/13 11:59:43;;;;;;;3.20;1.55;;;30.80;32.00;;;;;;4919522;29;20202;-81
2023/06/13 12:02:14;;;;;;;2.63;1.95;;;31.00;31.70;;;;;;4934742;29;20114;-80
2023/06/13 12:04:43;;;;;;;3.10;1.67;;;31.30;31.60;;;;;;4930716;29;20043;-80
2023/06/13 12:07:17;;;;;;;2.20;1.38;;;31.50;31.40;;;;;;4936166;29;20079;-80
2023/06/13 12:09:45;;;;;;;2.67;1.65;;;31.70;31.20;;;;;;4928557;29;20068;-80
2023/06/13 12:12:13;;;;;;;2.40;1.50;;;32.00;31.20;;;;;;4937830;29;20125;-81
2023/06/13 12:14:40;;;;;;;2.53;1.40;;;32.50;31.10;;;;;;4937260;29;20054;-78
2023/06/13 12:17:09;;;;;;;1.90;1.17;;;32.70;30.80;;;;;;4917531;29;20106;-82
2023/06/13 12:19:36;;;;;;;2.40;1.35;;;32.90;30.60;;;;;;4909135;29;20127;-83
2023/06/13 12:22:04;;;;;;;2.53;1.35;;;33.10;30.50;;;;;;4930305;29;20409;-82
2023/06/13 12:24:31;;;;;;;2.45;1.48;;;33.40;30.40;;;;;;4931128;29;20055;-81
2023/06/13 12:27:01;;;;;;;2.40;1.50;;;33.60;30.20;;;;;;4921877;29;20134;-87
2023/06/13 12:29:33;;;;;;;1.83;1.27;;;33.70;30.00;;;;;;4924576;29;20047;-84
2023/06/13 12:32:03;;;;;;;3.92;1.23;;;33.70;30.00;;;;;;4937476;29;20082;-84
2023/06/13 12:34:32;;;;;;;3.17;1.55;;;33.70;30.00;;;;;;4929131;29;20234;-79
2023/06/13 12:37:05;;;;;;;2.20;1.50;;;34.00;30.00;;;;;;4932980;29;20043;-87
2023/06/13 12:39:33;;;;;;;2.90;1.70;;;34.40;30.00;;;;;;4917441;29;20075;-87
2023/06/13 12:42:07;;;;;;;1.90;1.40;;;34.80;29.90;;;;;;4936933;29;20058;-87
2023/06/13 12:44:41;;;;;;;2.42;1.27;;;35.10;29.70;;;;;;4916532;29;20043;-88
2023/06/13 12:47:11;;;;;;;3.00;1.17;;;35.50;29.70;;;;;;4931155;29;20114;-86
2023/06/13 12:49:39;;;;;;;3.08;1.73;;;35.70;29.50;;;;;;4936963;29;20154;-85
2023/06/13 12:52:15;;;;;;;4.05;1.63;;;35.90;29.40;;;;;;4936927;29;20079;-85
2023/06/13 12:54:42;;;;;;;2.55;1.48;;;36.00;29.30;;;;;;4921371;29;20051;-83
2023/06/13 12:57:11;;;;;;;1.95;1.30;;;36.10;29.40;;;;;;4953287;29;20047;-86
2023/06/13 12:59:41;;;;;;;2.55;1.75;;;36.20;29.80;;;;;;4947569;29;20059;-83
2023/06/13 13:02:12;;;;;;;2.95;1.52;;;36.40;29.20;;;;;;4930470;29;20047;-85